Weather at Stockholm-Bromma Airport

Public forecast

Using degrees Celsius for public forecast. Weather courtesy of forecast.io.

Current aviation weather report (METAR) for Stockholm-Bromma Airport

Retrieved 2021/10/21 13:20 UTC (6 minutes ago):

ESSB 211320Z VRB02KT 3000 +RA SCT004 BKN006 BKN009 10/10 Q0972 RESHRA

Aviation forecast (TAF) for Stockholm-Bromma Airport

Forecast is more than 12 hours old.

Retrieved 2017/03/27 06:35 UTC (5 years ago):

TAF ESSB 270530Z 2706/2724 27008KT CAVOK BECMG 2710/2713 29015G25KT